Time;durP1;ratioP1;P1;durP2;ratioP2;P2;SDS_P1;SDS_P2;PMS_P1;PMS_P2;Temp;Humidity;BMP_temperature;BMP_pressure;BME280_temperature;BME280_humidity;BME280_pressure;Samples;Min_cycle;Max_cycle;Signal;HPM_P1;HPM_P2
2022/05/23 00:01:06;;;;;;;;;4.33;4.33;;;;;37.15;23.22;100036.53;4917057;28;45368;-81
2022/05/23 00:03:32;;;;;;;;;4.00;4.00;;;;;37.18;23.44;100033.44;4916524;28;45567;-81
2022/05/23 00:05:58;;;;;;;;;4.33;4.00;;;;;37.08;23.27;100016.09;4915292;28;45397;-81
2022/05/23 00:08:25;;;;;;;;;5.00;5.00;;;;;36.86;23.42;99993.44;4915756;28;45357;-81
2022/05/23 00:10:51;;;;;;;;;5.33;4.33;;;;;37.07;24.11;100030.94;4916554;28;45556;-81
2022/05/23 00:13:16;;;;;;;;;5.33;5.00;;;;;36.88;23.64;99998.84;4916509;28;46427;-81
2022/05/23 00:15:42;;;;;;;;;4.00;4.00;;;;;36.72;23.92;99981.06;4916618;28;45434;-81
2022/05/23 00:18:07;;;;;;;;;5.67;4.33;;;;;36.96;23.56;99995.25;4916630;28;45447;-81
2022/05/23 00:20:33;;;;;;;;;5.00;5.00;;;;;36.91;24.10;99976.38;4916845;28;45459;-81
2022/05/23 00:22:58;;;;;;;;;4.00;4.00;;;;;36.92;24.04;99983.66;4916072;28;45461;-81
2022/05/23 00:25:26;;;;;;;;;5.67;5.67;;;;;36.89;23.80;99973.78;4916459;28;45526;-81
2022/05/23 00:27:52;;;;;;;;;7.67;5.33;;;;;36.76;23.22;99959.47;4916247;28;45471;-81
2022/05/23 00:30:25;;;;;;;;;5.00;5.00;;;;;36.69;23.61;99964.78;4915337;28;45528;-81
2022/05/23 00:35:36;;;;;;;;;4.67;3.00;;;;;36.39;24.04;99950.34;4916104;28;45431;-82
2022/05/23 00:38:01;;;;;;;;;5.00;4.00;;;;;36.29;24.11;99948.66;4916070;28;45372;-82
2022/05/23 00:40:30;;;;;;;;;4.33;4.33;;;;;36.36;24.05;99974.69;4915179;28;45425;-81
2022/05/23 00:43:13;;;;;;;;;4.00;4.00;;;;;36.42;24.05;99971.28;4916118;28;46390;-81
2022/05/23 00:46:04;;;;;;;;;5.33;5.00;;;;;36.39;23.96;99943.97;4916375;28;45277;-81
2022/05/23 00:48:31;;;;;;;;;5.00;5.00;;;;;36.62;24.16;99954.53;4920890;28;45371;-81
2022/05/23 00:51:03;;;;;;;;;5.67;5.67;;;;;36.68;24.18;99970.47;4914368;28;45402;-81
2022/05/23 00:53:42;;;;;;;;;5.33;4.00;;;;;36.51;23.53;99926.13;4914702;28;47323;-81
2022/05/23 00:56:10;;;;;;;;;4.00;4.00;;;;;36.46;23.52;99906.41;4916047;28;45372;-81
2022/05/23 00:58:40;;;;;;;;;5.33;4.00;;;;;36.96;23.92;99968.47;4916099;28;45651;-81
2022/05/23 01:01:11;;;;;;;;;5.00;5.00;;;;;36.87;23.58;99952.84;4916217;28;45607;-81
2022/05/23 01:03:37;;;;;;;;;5.00;4.00;;;;;36.54;24.14;99914.75;4915990;28;45558;-81
2022/05/23 01:06:04;;;;;;;;;4.67;4.67;;;;;36.64;23.61;99928.47;4914285;28;45543;-81
2022/05/23 01:08:30;;;;;;;;;5.33;4.33;;;;;36.33;24.13;99906.81;4916154;28;45419;-81
2022/05/23 01:10:55;;;;;;;;;6.33;5.33;;;;;35.99;24.25;99876.22;4915840;28;45574;-81
2022/05/23 01:13:21;;;;;;;;;9.00;5.33;;;;;35.89;24.43;99871.69;4915753;28;45400;-81
2022/05/23 01:15:48;;;;;;;;;1.00;1.00;;;;;36.09;24.02;99904.66;4914743;28;45449;-81
2022/05/23 01:18:15;;;;;;;;;5.00;5.00;;;;;36.16;24.31;99911.28;4914573;28;45537;-81
2022/05/23 01:20:40;;;;;;;;;5.67;5.00;;;;;35.81;24.42;99835.72;4914399;28;45594;-81
2022/05/23 01:23:32;;;;;;;;;3.33;3.33;;;;;36.48;24.19;99881.38;4915588;28;45431;-81
2022/05/23 01:25:57;;;;;;;;;5.67;4.67;;;;;36.43;24.10;99848.72;4973890;28;46001;-80
2022/05/23 01:28:22;;;;;;;;;4.33;4.33;;;;;36.44;23.55;99847.66;4974351;28;45496;-81
2022/05/23 01:30:48;;;;;;;;;5.00;5.00;;;;;36.13;23.70;99828.72;4974103;28;45540;-81
2022/05/23 01:33:14;;;;;;;;;5.67;4.00;;;;;36.34;23.98;99863.47;4957142;28;47028;-81
2022/05/23 01:35:40;;;;;;;;;5.00;5.00;;;;;36.58;23.69;99862.78;4974222;28;45353;-81
2022/05/23 01:38:06;;;;;;;;;3.67;3.67;;;;;36.49;23.68;99839.75;4974087;28;45624;-81
2022/05/23 01:40:32;;;;;;;;;6.33;6.00;;;;;35.98;24.47;99811.00;4974306;28;45418;-81
2022/05/23 01:42:58;;;;;;;;;4.33;3.33;;;;;35.68;24.04;99808.47;4973778;28;45442;-80
2022/05/23 01:45:27;;;;;;;;;4.33;3.67;;;;;36.10;23.98;99820.78;4973981;28;45497;-81
2022/05/23 01:47:53;;;;;;;;;4.00;4.00;;;;;36.28;23.86;99812.47;4973628;28;45482;-80
2022/05/23 01:50:20;;;;;;;;;3.67;3.67;;;;;36.48;23.42;99829.72;4973969;28;45412;-81
2022/05/23 01:52:46;;;;;;;;;4.00;4.00;;;;;36.29;23.56;99811.44;4973702;28;48038;-81
2022/05/23 01:55:11;;;;;;;;;4.67;4.00;;;;;36.23;24.03;99818.50;4973719;28;45417;-81
2022/05/23 01:57:37;;;;;;;;;4.33;4.33;;;;;36.04;23.88;99780.03;4974051;28;45442;-81
2022/05/23 02:02:48;;;;;;;;;2.00;2.00;;;;;36.43;23.69;99778.75;4950196;28;45427;-81
2022/05/23 02:05:15;;;;;;;;;3.33;3.00;;;;;36.60;23.11;99815.66;4913734;28;45401;-81
2022/05/23 02:07:41;;;;;;;;;2.33;2.33;;;;;36.68;23.35;99810.19;4915650;28;45329;-81
2022/05/23 02:10:07;;;;;;;;;4.00;4.00;;;;;36.41;23.46;99754.06;4915139;28;45374;-81
2022/05/23 02:12:32;;;;;;;;;4.00;4.00;;;;;36.77;23.07;99781.56;4914990;28;45502;-81
2022/05/23 02:14:58;;;;;;;;;3.00;3.00;;;;;36.68;23.46;99754.91;4914884;28;45324;-81
2022/05/23 02:17:23;;;;;;;;;5.67;3.67;;;;;36.79;22.56;99779.53;4915116;28;45511;-81
2022/05/23 02:19:49;;;;;;;;;4.00;4.00;;;;;36.95;22.95;99794.44;4915182;28;45507;-81
2022/05/23 02:22:14;;;;;;;;;5.00;3.00;;;;;36.72;23.14;99759.97;4914898;28;46411;-81
2022/05/23 02:24:39;;;;;;;;;3.00;3.00;;;;;36.62;23.27;99748.16;4914915;28;45503;-81
2022/05/23 02:27:05;;;;;;;;;3.00;3.00;;;;;36.74;22.67;99796.56;4914771;28;45558;-81
2022/05/23 02:29:31;;;;;;;;;3.00;3.00;;;;;36.63;23.68;99790.47;4915043;28;45572;-81
2022/05/23 02:31:56;;;;;;;;;3.67;3.67;;;;;36.61;23.00;99795.28;4915316;28;48162;-81
2022/05/23 02:34:21;;;;;;;;;6.00;4.67;;;;;36.43;23.27;99773.25;4916404;28;45942;-81
2022/05/23 02:36:47;;;;;;;;;4.00;4.00;;;;;36.61;23.49;99814.63;4916630;28;45619;-81
2022/05/23 02:39:14;;;;;;;;;3.00;3.00;;;;;36.43;23.31;99804.50;4917723;28;45507;-81
2022/05/23 02:41:39;;;;;;;;;2.00;2.00;;;;;36.50;23.67;99835.97;4916472;28;47081;-81
2022/05/23 02:44:05;;;;;;;;;4.67;4.67;;;;;36.62;23.54;99844.00;4916283;28;46093;-80
2022/05/23 02:46:31;;;;;;;;;3.00;3.00;;;;;36.45;23.16;99816.25;4916128;28;45551;-81
2022/05/23 02:48:56;;;;;;;;;3.67;3.67;;;;;36.62;23.42;99824.66;4916390;28;45469;-81
2022/05/23 02:51:22;;;;;;;;;2.33;2.33;;;;;36.52;23.18;99798.00;4917275;28;45436;-81
2022/05/23 02:53:48;;;;;;;;;3.00;3.00;;;;;36.53;22.98;99812.69;4917639;28;45328;-81
2022/05/23 02:56:15;;;;;;;;;5.67;3.00;;;;;36.37;23.52;99780.28;4917240;28;45459;-81
2022/05/23 02:58:40;;;;;;;;;4.00;4.00;;;;;36.47;23.57;99781.06;4917576;28;45340;-81
2022/05/23 03:01:05;;;;;;;;;3.00;3.00;;;;;36.65;23.15;99802.22;4915777;28;46118;-81
2022/05/23 03:03:32;;;;;;;;;4.00;3.67;;;;;36.45;23.53;99773.97;4917546;28;45457;-80
2022/05/23 03:05:58;;;;;;;;;5.00;5.00;;;;;36.62;23.18;99783.22;4917517;28;45429;-81
2022/05/23 03:08:25;;;;;;;;;3.00;3.00;;;;;36.44;23.26;99786.03;4917594;28;45379;-81
2022/05/23 03:10:54;;;;;;;;;3.33;3.33;;;;;36.70;23.31;99824.72;4915930;28;47181;-81
2022/05/23 03:13:20;;;;;;;;;4.00;4.00;;;;;36.67;23.46;99834.19;4917089;28;45351;-81
2022/05/23 03:15:45;;;;;;;;;4.00;4.00;;;;;36.28;23.45;99811.63;4917124;28;45368;-81
2022/05/23 03:18:11;;;;;;;;;4.67;4.67;;;;;36.22;24.21;99830.56;4917267;28;45768;-81
2022/05/23 03:20:36;;;;;;;;;4.00;4.00;;;;;36.43;23.95;99847.81;4917190;28;46536;-81
2022/05/23 03:28:32;;;;;;;;;4.00;3.00;;;;;36.43;23.59;99828.47;4916993;28;45457;-81
2022/05/23 03:30:57;;;;;;;;;5.00;5.00;;;;;36.15;23.91;99779.75;4916731;28;46583;-81
2022/05/23 03:33:23;;;;;;;;;4.67;4.67;;;;;36.37;23.42;99805.13;4916991;28;45380;-81
2022/05/23 03:35:48;;;;;;;;;3.00;3.00;;;;;36.68;23.43;99840.56;4917350;28;45523;-83
2022/05/23 03:38:15;;;;;;;;;6.00;4.00;;;;;36.40;23.40;99780.84;4915803;28;45491;-82
2022/05/23 03:40:40;;;;;;;;;4.33;4.33;;;;;36.29;23.76;99767.25;4915673;28;47090;-82
2022/05/23 03:43:07;;;;;;;;;4.00;4.00;;;;;36.04;24.13;99705.47;4915601;28;45451;-82
2022/05/23 03:45:37;;;;;;;;;4.33;4.00;;;;;36.52;23.43;99750.16;4915496;28;45450;-82
2022/05/23 03:48:03;;;;;;;;;3.67;3.67;;;;;36.38;23.84;99710.22;4916828;28;45373;-82
2022/05/23 03:50:30;;;;;;;;;4.00;4.00;;;;;36.53;23.69;99736.19;4915384;28;47927;-82
2022/05/23 03:52:56;;;;;;;;;5.00;4.00;;;;;36.19;23.89;99679.00;4915563;28;46176;-82
2022/05/23 03:55:22;;;;;;;;;4.00;4.00;;;;;36.46;23.71;99703.88;4916881;28;45395;-83
2022/05/23 03:57:48;;;;;;;;;5.00;5.00;;;;;36.30;23.90;99685.28;4915985;28;45611;-83
2022/05/23 04:00:14;;;;;;;;;7.00;5.00;;;;;36.51;24.38;99737.38;4916363;28;45393;-82
2022/05/23 04:02:40;;;;;;;;;4.67;4.67;;;;;36.13;24.01;99687.06;4915754;28;46124;-82
2022/05/23 04:05:07;;;;;;;;;5.00;5.00;;;;;36.49;24.67;99740.31;4916976;28;45410;-82
2022/05/23 04:07:36;;;;;;;;;5.00;5.00;;;;;36.20;24.50;99708.34;4915814;28;45523;-83
2022/05/23 04:10:03;;;;;;;;;5.67;5.67;;;;;36.39;24.53;99734.03;4916574;28;45621;-82
2022/05/23 04:12:28;;;;;;;;;5.00;5.00;;;;;36.74;24.29;99773.63;4916546;28;45365;-85
2022/05/23 04:14:53;;;;;;;;;5.00;5.00;;;;;36.19;24.41;99673.47;4916752;28;45511;-86
2022/05/23 04:17:19;;;;;;;;;7.00;7.00;;;;;36.57;24.95;99761.59;4916957;28;45380;-85
2022/05/23 04:19:44;;;;;;;;;6.00;6.00;;;;;36.23;24.66;99716.31;4915455;28;47202;-85
2022/05/23 04:22:09;;;;;;;;;7.00;4.67;;;;;36.14;24.42;99686.91;4916353;28;47940;-85
2022/05/23 04:24:35;;;;;;;;;5.00;5.00;;;;;36.16;24.85;99661.88;4915642;28;45234;-85
2022/05/23 04:27:00;;;;;;;;;5.00;5.00;;;;;36.82;24.62;99762.63;4915356;28;45555;-85
2022/05/23 04:29:25;;;;;;;;;4.67;4.67;;;;;36.31;24.17;99654.75;4914946;28;47472;-85
2022/05/23 04:31:51;;;;;;;;;6.33;5.00;;;;;36.51;24.66;99666.44;4915359;28;45307;-85
2022/05/23 04:37:02;;;;;;;;;5.00;5.00;;;;;36.58;24.74;99638.97;4916637;28;45447;-85
2022/05/23 04:39:27;;;;;;;;;6.00;6.00;;;;;36.28;24.76;99568.59;4916818;28;45464;-82
2022/05/23 04:41:52;;;;;;;;;6.00;6.00;;;;;36.74;24.36;99657.53;4914695;28;45402;-81
2022/05/23 04:44:18;;;;;;;;;7.00;7.00;;;;;36.67;24.47;99637.16;4916388;28;45794;-80
2022/05/23 04:49:49;;;;;;;;;6.33;6.33;;;;;36.67;24.05;99615.03;4925235;28;45321;-82
2022/05/23 04:52:19;;;;;;;;;6.33;6.33;;;;;36.68;24.90;99617.63;4906882;28;45543;-82
2022/05/23 04:54:45;;;;;;;;;6.67;6.67;;;;;37.07;24.18;99647.44;4896916;28;45393;-82
2022/05/23 04:57:10;;;;;;;;;6.50;6.50;;;;;37.22;24.62;99675.31;4896918;28;45633;-81
2022/05/23 04:59:36;;;;;;;;;5.00;5.00;;;;;37.16;24.50;99661.28;4934664;28;48577;-81
2022/05/23 05:02:03;;;;;;;;;4.33;4.33;;;;;37.11;24.67;99650.75;4928245;28;45977;-82
2022/05/23 05:04:29;;;;;;;;;6.00;5.00;;;;;37.41;23.67;99700.94;4912105;28;45355;-82
2022/05/23 05:06:55;;;;;;;;;4.00;4.00;;;;;37.10;24.48;99653.69;4916499;28;45501;-83
2022/05/23 05:09:20;;;;;;;;;6.67;5.33;;;;;36.84;23.91;99600.25;4906035;28;46741;-82
2022/05/23 05:11:46;;;;;;;;;6.67;5.33;;;;;36.72;24.56;99601.56;4934581;28;45346;-83
2022/05/23 05:14:11;;;;;;;;;6.00;5.00;;;;;36.62;24.71;99636.78;4909012;28;45531;-81
2022/05/23 05:16:37;;;;;;;;;5.00;5.00;;;;;36.21;25.29;99588.56;4924591;28;45399;-80
2022/05/23 05:19:03;;;;;;;;;4.67;4.67;;;;;36.24;24.92;99620.50;4922154;28;46375;-80
2022/05/23 05:21:29;;;;;;;;;4.00;3.67;;;;;36.35;25.06;99627.69;4933672;28;46012;-80
2022/05/23 05:23:55;;;;;;;;;6.00;5.67;;;;;36.40;24.90;99611.50;4904543;28;45366;-80
2022/05/23 05:26:20;;;;;;;;;6.00;5.00;;;;;36.62;24.46;99609.13;4923457;28;45466;-80
2022/05/23 05:28:45;;;;;;;;;6.67;6.67;;;;;36.70;24.40;99626.59;4902159;28;45510;-80
2022/05/23 05:31:23;;;;;;;;;6.00;5.00;;;;;36.91;24.74;99650.19;4909362;28;45321;-80
2022/05/23 05:33:57;;;;;;;;;6.00;5.00;;;;;36.69;24.89;99607.44;4930853;28;45506;-80
2022/05/23 05:36:32;;;;;;;;;5.00;5.00;;;;;37.13;24.21;99667.16;4895435;28;45424;-84
2022/05/23 05:39:02;;;;;;;;;6.00;6.00;;;;;36.89;24.78;99605.25;4917960;28;47115;-80
2022/05/23 05:41:32;;;;;;;;;5.67;5.67;;;;;37.12;24.73;99641.41;4923417;28;45447;-81
2022/05/23 05:44:03;;;;;;;;;7.00;5.00;;;;;36.84;23.95;99594.72;4927569;28;45471;-79
2022/05/23 05:46:38;;;;;;;;;6.00;4.67;;;;;37.16;24.36;99651.09;4915148;28;45330;-80
2022/05/23 05:49:11;;;;;;;;;6.67;5.33;;;;;36.91;24.18;99598.53;4906441;28;46293;-80
2022/05/23 05:51:40;;;;;;;;;8.00;8.00;;;;;37.24;23.93;99640.06;4923791;28;45491;-81
2022/05/23 05:54:08;;;;;;;;;6.33;6.33;;;;;37.20;23.77;99646.09;4921609;28;45455;-81
2022/05/23 05:56:34;;;;;;;;;6.33;5.00;;;;;37.08;24.53;99631.72;4916745;28;45494;-83
2022/05/23 05:59:00;;;;;;;;;6.33;6.00;;;;;37.32;24.54;99657.72;4928096;28;47208;-81
2022/05/23 06:01:25;;;;;;;;;6.00;6.00;;;;;37.51;23.90;99668.47;4910952;28;45530;-76
2022/05/23 06:03:50;;;;;;;;;4.00;4.00;;;;;37.45;24.22;99674.66;4934981;28;45543;-77
2022/05/23 06:11:43;;;;;;;;;6.33;5.33;;;;;37.57;24.38;99662.22;4905542;28;45605;-77
2022/05/23 06:14:09;;;;;;;;;5.67;5.67;;;;;37.62;23.93;99660.84;4929151;28;45547;-78
2022/05/23 06:16:37;;;;;;;;;7.00;6.00;;;;;37.54;23.86;99645.97;4911888;28;45567;-78
2022/05/23 06:19:02;;;;;;;;;6.00;6.00;;;;;37.49;23.91;99651.16;4924859;28;45509;-77
2022/05/23 06:21:28;;;;;;;;;5.67;5.67;;;;;37.48;24.17;99673.47;4922960;28;45308;-78
2022/05/23 06:23:55;;;;;;;;;7.00;4.33;;;;;37.37;24.62;99694.00;4923486;28;45404;-78
2022/05/23 06:26:23;;;;;;;;;8.67;7.00;;;;;37.49;24.50;99687.13;4924675;28;45579;-77
2022/05/23 06:28:50;;;;;;;;;6.67;6.67;;;;;37.53;24.73;99674.66;4921618;28;47338;-76
2022/05/23 06:31:16;;;;;;;;;7.00;7.00;;;;;37.55;23.89;99675.38;4925873;28;45314;-78
2022/05/23 06:33:41;;;;;;;;;7.00;7.00;;;;;37.48;23.92;99646.66;4919770;28;45400;-78
2022/05/23 06:36:08;;;;;;;;;6.00;6.00;;;;;37.54;24.23;99653.38;4919734;28;45578;-78
2022/05/23 06:38:36;;;;;;;;;6.67;6.67;;;;;37.50;24.81;99630.75;4918835;28;45456;-80
2022/05/23 06:41:03;;;;;;;;;8.33;7.00;;;;;37.71;24.03;99615.53;4929523;28;45314;-79
2022/05/23 06:43:29;;;;;;;;;5.00;5.00;;;;;37.63;24.06;99596.16;4932491;28;45405;-80
2022/05/23 06:45:56;;;;;;;;;7.33;6.33;;;;;37.65;24.05;99627.28;4933302;28;45406;-80
2022/05/23 06:48:25;;;;;;;;;7.00;7.00;;;;;37.34;24.73;99622.44;4925755;28;45646;-80
2022/05/23 06:50:51;;;;;;;;;7.33;7.00;;;;;37.35;24.72;99640.78;4933656;28;45519;-80
2022/05/23 06:53:19;;;;;;;;;6.67;6.00;;;;;37.33;24.33;99617.94;4918655;28;45585;-79
2022/05/23 06:55:45;;;;;;;;;8.00;7.00;;;;;37.46;25.09;99629.38;4914635;28;45304;-79
2022/05/23 06:58:11;;;;;;;;;9.00;7.00;;;;;37.34;24.75;99622.44;4913860;28;46214;-79
2022/05/23 07:00:36;;;;;;;;;8.33;8.33;;;;;37.39;25.13;99633.88;4918001;28;45431;-79
2022/05/23 07:03:02;;;;;;;;;8.00;7.00;;;;;37.31;24.95;99622.78;4933725;28;45312;-79
2022/05/23 07:13:39;;;;;;;;;8.00;8.00;;;;;37.46;25.35;99629.38;4915418;28;45547;-78
2022/05/23 07:16:05;;;;;;;;;8.00;7.33;;;;;37.34;24.83;99601.19;4919162;28;45493;-79
2022/05/23 07:18:31;;;;;;;;;8.33;7.33;;;;;37.56;25.11;99615.34;4925093;28;46363;-78
2022/05/23 07:20:56;;;;;;;;;11.33;10.00;;;;;37.54;24.81;99618.31;4928608;28;45393;-78
2022/05/23 07:23:21;;;;;;;;;8.00;8.00;;;;;37.64;25.15;99633.84;4926316;28;45335;-78
2022/05/23 07:25:47;;;;;;;;;7.67;6.67;;;;;37.56;24.80;99610.69;4932813;28;45570;-79
2022/05/23 07:28:13;;;;;;;;;11.67;9.00;;;;;37.62;25.15;99622.09;4917874;28;46316;-79
2022/05/23 07:30:40;;;;;;;;;9.33;7.67;;;;;37.44;25.63;99620.34;4930989;28;45412;-79
2022/05/23 07:33:06;;;;;;;;;9.67;8.00;;;;;37.57;25.04;99634.56;4921600;28;45477;-78
2022/05/23 07:35:31;;;;;;;;;8.00;7.33;;;;;37.60;25.21;99649.94;4919378;28;45614;-79
2022/05/23 07:37:56;;;;;;;;;10.00;9.00;;;;;37.49;25.70;99628.16;4916941;28;46712;-79
2022/05/23 07:40:22;;;;;;;;;11.00;8.00;;;;;37.46;25.81;99611.91;4911526;28;45409;-78
2022/05/23 07:42:48;;;;;;;;;9.00;8.00;;;;;37.47;25.65;99606.19;4927810;28;45558;-78
2022/05/23 07:45:14;;;;;;;;;7.00;7.00;;;;;37.54;25.40;99629.38;4927299;28;45444;-79
2022/05/23 07:47:40;;;;;;;;;10.00;8.33;;;;;37.35;26.16;99597.38;4921355;28;46577;-79
2022/05/23 07:50:09;;;;;;;;;12.67;10.00;;;;;37.56;25.95;99604.28;4931399;28;45475;-78
2022/05/23 07:52:35;;;;;;;;;12.33;11.33;;;;;37.61;25.93;99617.59;4921080;28;45466;-79
2022/05/23 08:00:32;;;;;;;;;9.00;8.00;;;;;37.96;25.89;99565.66;4975776;28;45314;-78
2022/05/23 08:03:00;;;;;;;;;14.33;12.33;;;;;37.97;26.15;99578.47;4968000;28;45463;-79
2022/05/23 08:05:26;;;;;;;;;12.33;12.33;;;;;37.88;26.07;99569.31;4996884;28;45487;-79
2022/05/23 08:07:52;;;;;;;;;15.00;12.67;;;;;37.75;26.09;99540.28;4961608;28;46225;-79
2022/05/23 08:10:17;;;;;;;;;22.00;19.67;;;;;38.00;25.72;99555.94;4958532;28;49443;-79
2022/05/23 08:12:49;;;;;;;;;18.67;16.33;;;;;37.89;25.97;99554.41;4992347;28;45489;-79
2022/05/23 08:15:14;;;;;;;;;17.33;17.00;;;;;38.10;25.40;99582.41;4958061;28;45566;-79
2022/05/23 08:17:39;;;;;;;;;15.00;14.33;;;;;38.11;26.16;99569.41;4961880;28;48044;-79
2022/05/23 08:20:05;;;;;;;;;16.33;16.33;;;;;38.18;25.16;99542.72;4954115;28;45449;-80
2022/05/23 08:22:31;;;;;;;;;12.00;12.00;;;;;38.30;25.20;99548.78;4941403;28;45563;-78
2022/05/23 08:24:57;;;;;;;;;16.00;16.00;;;;;38.50;24.89;99576.88;4939157;28;45682;-79
2022/05/23 08:27:23;;;;;;;;;14.33;13.67;;;;;38.65;25.11;99581.63;4974598;28;48085;-78
2022/05/23 08:29:49;;;;;;;;;14.67;13.33;;;;;38.60;24.79;99577.50;4956403;28;45457;-79
2022/05/23 08:32:16;;;;;;;;;11.00;11.00;;;;;38.40;25.00;99573.47;4937684;28;45455;-78
2022/05/23 08:34:42;;;;;;;;;11.33;11.33;;;;;38.24;25.09;99549.47;4959841;28;45430;-79
2022/05/23 08:37:07;;;;;;;;;13.33;12.00;;;;;38.07;25.42;99570.81;4954162;28;45840;-79
2022/05/23 08:39:33;;;;;;;;;11.33;11.33;;;;;38.07;25.50;99580.00;4955997;28;45484;-80
2022/05/23 08:42:12;;;;;;;;;12.00;11.00;;;;;38.00;25.31;99576.19;4973132;28;45675;-79
2022/05/23 08:44:48;;;;;;;;;7.00;7.00;;;;;37.83;25.31;99556.00;5003413;28;45549;-79
2022/05/23 08:47:35;;;;;;;;;12.33;10.67;;;;;37.71;25.79;99535.25;4977870;28;46389;-79
2022/05/23 08:50:00;;;;;;;;;8.33;8.33;;;;;37.75;25.84;99567.09;4955629;28;45473;-79
2022/05/23 08:52:38;;;;;;;;;11.00;11.00;;;;;37.89;25.41;99565.50;4970922;28;45431;-79
2022/05/23 08:55:14;;;;;;;;;10.00;10.00;;;;;37.87;26.02;99538.00;4962432;28;45479;-79
2022/05/23 08:57:50;;;;;;;;;8.00;7.67;;;;;37.90;25.06;99547.84;4955998;28;47120;-79
2022/05/23 09:00:20;;;;;;;;;9.00;9.00;;;;;37.84;25.39;99562.41;4994986;28;45526;-78
2022/05/23 09:03:10;;;;;;;;;9.67;8.33;;;;;37.74;26.20;99562.56;4980108;28;45343;-78
2022/05/23 09:05:40;;;;;;;;;7.33;7.33;;;;;37.72;26.05;99556.34;4994767;28;45585;-80
2022/05/23 09:08:14;;;;;;;;;9.33;9.33;;;;;37.65;25.59;99563.63;4953314;28;46415;-78
2022/05/23 09:10:49;;;;;;;;;9.67;7.67;;;;;37.56;26.06;99568.31;5006494;28;45969;-79
2022/05/23 09:13:16;;;;;;;;;6.67;5.33;;;;;37.22;26.19;99539.78;4973278;28;45447;-78
2022/05/23 09:15:43;;;;;;;;;5.33;4.00;;;;;36.88;26.33;99551.03;4993796;28;45384;-79
2022/05/23 09:18:16;;;;;;;;;6.33;6.33;;;;;36.73;25.86;99545.25;4970231;28;45542;-78
2022/05/23 09:20:49;;;;;;;;;7.00;7.00;;;;;36.94;25.92;99555.84;4987617;28;45388;-78
2022/05/23 09:23:27;;;;;;;;;6.33;6.33;;;;;37.15;25.73;99580.25;4963400;28;45436;-79
2022/05/23 09:25:54;;;;;;;;;7.33;7.33;;;;;37.09;26.35;99556.06;4957025;28;45744;-78
2022/05/23 09:28:29;;;;;;;;;9.33;8.67;;;;;36.89;26.26;99558.25;4973783;28;46532;-79
2022/05/23 09:31:16;;;;;;;;;8.00;7.00;;;;;37.18;25.75;99574.34;4944577;28;45738;-81
2022/05/23 09:33:45;;;;;;;;;10.33;10.33;;;;;37.14;25.73;99544.47;4927202;28;45706;-82
2022/05/23 09:36:19;;;;;;;;;11.33;10.00;;;;;37.16;25.52;99561.72;4959162;28;45545;-80
2022/05/23 09:38:47;;;;;;;;;10.00;8.67;;;;;37.10;25.43;99570.72;4956215;28;45577;-80
2022/05/23 09:49:46;;;;;;;;;8.67;8.67;;;;;36.87;24.88;99541.00;4950722;28;45588;-79
2022/05/23 09:52:36;;;;;;;;;11.67;11.33;;;;;36.99;24.82;99574.69;4963415;28;45452;-82
2022/05/23 09:55:07;;;;;;;;;9.67;9.67;;;;;36.91;25.34;99537.72;4942768;28;45514;-80
2022/05/23 09:57:39;;;;;;;;;14.00;12.67;;;;;37.11;24.83;99551.19;4925294;28;45516;-85
2022/05/23 10:00:08;;;;;;;;;10.00;10.00;;;;;37.31;24.67;99570.25;4982096;28;47220;-83
2022/05/23 10:02:59;;;;;;;;;9.67;9.67;;;;;37.25;24.82;99557.94;4941652;28;45704;-83
2022/05/23 10:05:39;;;;;;;;;10.33;10.33;;;;;37.10;24.67;99527.34;4992855;28;45409;-83
2022/05/23 10:08:10;;;;;;;;;11.00;11.00;;;;;37.31;25.17;99560.03;4963189;28;45750;-82
2022/05/23 10:10:38;;;;;;;;;13.33;11.67;;;;;37.44;24.88;99551.19;4939298;28;46506;-82
2022/05/23 10:13:25;;;;;;;;;11.67;11.67;;;;;37.49;24.64;99570.91;4944475;28;45511;-82
2022/05/23 10:15:55;;;;;;;;;10.00;9.33;;;;;37.41;24.98;99526.66;4952515;28;45444;-84
2022/05/23 10:18:35;;;;;;;;;14.00;13.33;;;;;37.37;24.89;99533.56;4945746;28;45451;-86
2022/05/23 10:21:17;;;;;;;;;14.00;13.67;;;;;37.34;24.67;99500.75;4949978;28;46422;-85
2022/05/23 10:24:02;;;;;;;;;11.67;11.00;;;;;37.59;24.37;99549.44;4954420;28;45623;-82
2022/05/23 10:26:30;;;;;;;;;15.67;14.67;;;;;37.47;24.72;99533.38;4942134;28;45555;-85
2022/05/23 10:29:08;;;;;;;;;13.33;13.33;;;;;37.72;24.18;99561.88;4945687;28;45705;-84
2022/05/23 10:31:39;;;;;;;;;11.33;10.33;;;;;37.35;24.74;99547.59;4926331;28;46400;-81
2022/05/23 10:34:21;;;;;;;;;14.67;13.33;;;;;37.32;24.94;99511.97;4931524;28;45497;-87
2022/05/23 10:36:49;;;;;;;;;13.00;13.00;;;;;37.45;24.92;99536.34;4930626;28;45379;-81
2022/05/23 10:42:15;;;;;;;;;15.00;15.00;;;;;37.22;24.85;99534.25;4953678;28;45816;-83
2022/05/23 10:45:01;;;;;;;;;14.33;14.33;;;;;36.88;25.14;99504.03;4974802;28;45798;-85
2022/05/23 10:47:45;;;;;;;;;11.00;11.00;;;;;37.22;25.32;99566.59;4953315;28;45670;-84
2022/05/23 10:50:22;;;;;;;;;14.67;13.00;;;;;37.01;24.48;99523.72;4969544;28;45610;-88
2022/05/23 10:53:22;;;;;;;;;13.00;13.00;;;;;37.14;25.56;99561.91;4943704;28;47747;-83
2022/05/23 10:56:21;;;;;;;;;17.67;16.67;;;;;37.33;25.66;99565.38;4968921;28;45499;-85
2022/05/23 10:59:05;;;;;;;;;13.00;13.00;;;;;37.20;25.64;99564.00;4943746;28;45492;-80
2022/05/23 11:01:39;;;;;;;;;15.00;15.00;;;;;37.25;25.06;99558.78;4983541;28;46490;-80
2022/05/23 11:04:39;;;;;;;;;22.00;19.00;;;;;37.29;25.69;99564.03;4947465;28;45684;-79
2022/05/23 11:07:35;;;;;;;;;19.00;17.67;;;;;37.22;25.46;99525.09;4965476;28;46474;-79
2022/05/23 11:10:28;;;;;;;;;20.67;17.00;;;;;37.21;25.24;99573.16;4959828;28;45581;-80
2022/05/23 11:13:21;;;;;;;;;18.00;18.00;;;;;36.80;25.93;99607.13;4985719;28;45490;-74
2022/05/23 11:16:25;;;;;;;;;23.33;20.33;;;;;36.68;26.78;99569.75;4985689;28;46310;-75
2022/05/23 11:19:11;;;;;;;;;25.67;22.00;;;;;36.81;26.76;99545.31;4975651;28;45716;-75
2022/05/23 11:21:46;;;;;;;;;16.33;16.33;;;;;36.66;26.47;99558.88;4962525;28;45842;-75
2022/05/23 11:24:26;;;;;;;;;22.00;22.00;;;;;36.58;26.90;99553.34;4976001;28;45461;-75
2022/05/23 11:33:41;;;;;;;;;23.33;21.33;;;;;36.53;26.98;99541.94;4991217;28;46052;-75
2022/05/23 11:35:23;;;;;;;;;21.00;21.00;;;;;36.32;27.44;99567.28;4986985;28;45478;-77
2022/05/23 11:37:49;;;;;;;;;24.33;22.00;;;;;36.36;27.28;99579.72;5000957;28;46265;-75
2022/05/23 11:40:30;;;;;;;;;21.67;21.67;;;;;36.35;27.18;99577.97;4995815;28;45654;-74
2022/05/23 11:43:07;;;;;;;;;20.67;19.00;;;;;36.39;27.58;99590.41;4966797;28;45498;-77
2022/05/23 11:48:37;;;;;;;;;25.00;25.00;;;;;36.56;27.44;99586.66;4961497;28;45897;-77
2022/05/23 11:51:24;;;;;;;;;24.00;23.00;;;;;36.80;27.29;99586.94;4958245;28;45486;-77
2022/05/23 11:53:52;;;;;;;;;26.33;25.33;;;;;36.73;27.19;99583.94;4960560;28;45379;-77
2022/05/23 11:56:42;;;;;;;;;24.33;23.00;;;;;36.80;27.34;99596.09;4978929;28;45678;-77
2022/05/23 11:59:30;;;;;;;;;27.67;25.33;;;;;36.88;27.50;99584.19;4959511;28;45560;-78
2022/05/23 12:02:11;;;;;;;;;25.67;24.00;;;;;36.98;27.05;99584.03;4951986;28;45456;-77
2022/05/23 12:04:48;;;;;;;;;24.67;24.67;;;;;37.01;26.88;99587.31;4968830;28;45416;-75
2022/05/23 12:07:37;;;;;;;;;25.67;24.00;;;;;37.00;27.34;99593.88;4949393;28;45773;-76
2022/05/23 12:10:20;;;;;;;;;26.33;25.33;;;;;37.03;27.01;99598.19;4984617;28;45453;-76
2022/05/23 12:12:50;;;;;;;;;25.00;25.00;;;;;37.09;26.56;99583.69;4966395;28;45494;-76
2022/05/23 12:15:43;;;;;;;;;24.00;22.67;;;;;37.03;26.64;99595.44;4973560;28;45526;-76
2022/05/23 12:18:47;;;;;;;;;23.33;19.00;;;;;36.67;27.12;99571.69;4956381;28;45445;-76
2022/05/23 12:21:34;;;;;;;;;25.67;24.67;;;;;36.68;26.77;99595.53;4971994;28;46506;-75
2022/05/23 12:24:30;;;;;;;;;30.67;26.33;;;;;36.69;27.26;99604.66;4959660;28;46031;-76
2022/05/23 12:27:03;;;;;;;;;24.67;23.33;;;;;36.73;27.34;99608.81;4971249;28;45486;-76
2022/05/23 12:29:37;;;;;;;;;24.67;24.67;;;;;36.68;27.04;99583.59;4989480;28;45484;-76
2022/05/23 12:32:19;;;;;;;;;24.00;23.00;;;;;36.67;26.62;99599.31;4955946;28;45644;-76
2022/05/23 12:34:48;;;;;;;;;23.67;21.67;;;;;36.68;26.95;99602.94;4962765;28;46109;-75
2022/05/23 12:37:23;;;;;;;;;21.33;18.67;;;;;36.52;27.11;99601.84;4968614;28;45652;-75
2022/05/23 12:40:10;;;;;;;;;23.67;22.33;;;;;36.49;27.27;99601.34;4990959;28;45502;-76